Time;durP1;ratioP1;P1;durP2;ratioP2;P2;SDS_P1;SDS_P2;PMS_P1;PMS_P2;Temp;Humidity;BMP_temperature;BMP_pressure;BME280_temperature;BME280_humidity;BME280_pressure;Samples;Min_cycle;Max_cycle;Signal;HPM_P1;HPM_P2
2022/05/01 00:00:35;;;;;;;1999.90;999.90;;;11.40;99.90;;;;;;5114494;28;20226;-70
2022/05/01 00:03:02;;;;;;;1999.90;999.90;;;11.40;99.90;;;;;;5114187;28;20201;-71
2022/05/01 00:05:30;;;;;;;1999.90;999.90;;;11.40;99.90;;;;;;5114510;28;20238;-71
2022/05/01 00:07:58;;;;;;;222.23;50.08;;;11.50;99.90;;;;;;5114496;28;20233;-71
2022/05/01 00:10:27;;;;;;;315.92;281.27;;;11.60;99.90;;;;;;5114425;28;20201;-70
2022/05/01 00:12:54;;;;;;;274.77;239.25;;;11.60;99.90;;;;;;5114855;28;20207;-71
2022/05/01 00:15:22;;;;;;;25.08;17.65;;;11.70;99.90;;;;;;5114233;27;20300;-71
2022/05/01 00:17:49;;;;;;;30.35;16.45;;;11.70;99.90;;;;;;5113847;28;20201;-71
2022/05/01 00:20:16;;;;;;;29.40;17.13;;;11.70;99.90;;;;;;5114089;28;20758;-70
2022/05/01 00:22:43;;;;;;;32.05;17.73;;;11.60;99.90;;;;;;5114253;28;20559;-71
2022/05/01 00:25:10;;;;;;;45.40;18.75;;;11.70;99.90;;;;;;5113873;28;20221;-70
2022/05/01 00:27:38;;;;;;;34.95;18.17;;;11.40;99.90;;;;;;5114198;28;20208;-71
2022/05/01 00:30:07;;;;;;;29.88;17.10;;;11.50;99.90;;;;;;5113943;28;20573;-71
2022/05/01 00:36:25;;;;;;;26.02;17.25;;;11.50;99.90;;;;;;5114196;28;20208;-70
2022/05/01 00:38:05;;;;;;;32.53;19.15;;;11.60;99.90;;;;;;5113882;28;20558;-71
2022/05/01 00:40:32;;;;;;;32.65;18.58;;;11.50;99.90;;;;;;5113994;28;20229;-70
2022/05/01 00:43:03;;;;;;;31.73;18.23;;;11.60;99.90;;;;;;5113907;28;20225;-72
2022/05/01 00:45:30;;;;;;;36.63;18.88;;;11.60;99.90;;;;;;5114180;28;20304;-70
2022/05/01 00:47:57;;;;;;;34.65;18.27;;;11.70;99.90;;;;;;5114007;28;20197;-70
2022/05/01 00:50:25;;;;;;;30.30;17.95;;;11.70;99.90;;;;;;5113895;28;20199;-71
2022/05/01 00:52:53;;;;;;;35.17;18.08;;;11.80;99.90;;;;;;5113732;28;20205;-70
2022/05/01 00:55:20;;;;;;;26.60;17.67;;;11.80;99.90;;;;;;5113470;28;20717;-71
2022/05/01 00:57:48;;;;;;;31.30;18.80;;;11.80;99.90;;;;;;5113765;28;20201;-70
2022/05/01 01:00:17;;;;;;;29.13;18.25;;;11.70;99.90;;;;;;5113793;28;20217;-70
2022/05/01 01:02:44;;;;;;;30.60;19.83;;;11.70;99.90;;;;;;5113766;28;20754;-71
2022/05/01 01:05:11;;;;;;;30.75;17.20;;;11.80;99.90;;;;;;5113355;28;20228;-71
2022/05/01 01:07:38;;;;;;;28.33;17.58;;;11.80;99.90;;;;;;5113556;28;20198;-71
2022/05/01 01:10:06;;;;;;;27.73;17.30;;;11.70;99.90;;;;;;5113784;28;20220;-71
2022/05/01 01:15:20;;;;;;;30.38;17.23;;;11.70;99.90;;;;;;5113561;28;20219;-71
2022/05/01 01:17:52;;;;;;;32.40;19.00;;;11.80;99.90;;;;;;5113771;28;20197;-70
2022/05/01 01:20:21;;;;;;;33.15;19.58;;;11.70;99.90;;;;;;5113667;28;20222;-71
2022/05/01 01:22:51;;;;;;;34.65;17.48;;;11.50;99.90;;;;;;5113684;28;20251;-70
2022/05/01 01:25:20;;;;;;;34.17;19.52;;;11.50;99.90;;;;;;5113560;28;20308;-70
2022/05/01 01:27:48;;;;;;;29.92;17.73;;;11.60;99.90;;;;;;5113366;28;20206;-71
2022/05/01 01:33:00;;;;;;;38.67;20.60;;;11.60;99.90;;;;;;5117508;28;20197;-70
2022/05/01 01:35:29;;;;;;;27.58;12.38;;;11.70;99.90;;;;;;5117145;28;20223;-70
2022/05/01 01:37:57;;;;;;;1999.90;999.90;;;11.70;99.90;;;;;;5117369;28;20201;-70
2022/05/01 01:40:27;;;;;;;33.55;19.10;;;11.60;99.90;;;;;;5117162;28;20228;-70
2022/05/01 01:42:57;;;;;;;30.02;18.95;;;11.70;99.90;;;;;;5117354;28;20653;-70
2022/05/01 01:45:26;;;;;;;29.40;19.15;;;11.70;99.90;;;;;;5117236;28;20236;-70
2022/05/01 01:47:57;;;;;;;33.70;20.13;;;11.70;99.90;;;;;;5117094;28;20697;-71
2022/05/01 01:50:24;;;;;;;36.40;19.42;;;11.60;99.90;;;;;;5117168;28;20601;-71
2022/05/01 01:52:51;;;;;;;30.10;19.25;;;11.60;99.90;;;;;;5117056;28;20201;-70
2022/05/01 01:55:20;;;;;;;30.73;19.02;;;11.50;99.90;;;;;;5116901;28;20257;-71
2022/05/01 01:57:47;;;;;;;24.67;17.50;;;11.60;99.90;;;;;;5117251;28;20203;-70
2022/05/01 02:00:14;;;;;;;33.95;19.15;;;11.60;99.90;;;;;;5116856;27;20227;-70
2022/05/01 02:02:41;;;;;;;26.70;18.45;;;11.60;99.90;;;;;;5116920;28;20197;-70
2022/05/01 02:05:09;;;;;;;31.95;19.52;;;11.60;99.90;;;;;;5116614;28;20221;-70
2022/05/01 02:07:36;;;;;;;1999.90;999.90;;;11.40;99.90;;;;;;5116832;28;20224;-70
2022/05/01 02:10:04;;;;;;;40.03;19.50;;;11.40;99.90;;;;;;5116756;28;20586;-71
2022/05/01 02:12:33;;;;;;;30.60;19.13;;;11.50;99.90;;;;;;5116575;28;20235;-70
2022/05/01 02:15:00;;;;;;;28.38;18.40;;;11.40;99.90;;;;;;5116345;28;20217;-71
2022/05/01 02:17:26;;;;;;;29.38;19.23;;;11.30;99.90;;;;;;5116401;28;20740;-70
2022/05/01 02:19:53;;;;;;;29.27;18.35;;;11.50;99.90;;;;;;5116426;28;20250;-71
2022/05/01 02:22:21;;;;;;;33.08;19.73;;;11.50;99.90;;;;;;5116594;28;20558;-71
2022/05/01 02:24:48;;;;;;;53.42;20.08;;;11.50;99.90;;;;;;5116748;28;20221;-71
2022/05/01 02:27:15;;;;;;;105.80;23.65;;;11.50;99.90;;;;;;5116348;28;20208;-70
2022/05/01 02:29:43;;;;;;;31.63;19.42;;;11.50;99.90;;;;;;5116416;28;20217;-71
2022/05/01 02:32:10;;;;;;;27.33;18.25;;;11.60;99.90;;;;;;5116476;28;20201;-70
2022/05/01 02:34:37;;;;;;;27.98;18.13;;;11.60;99.90;;;;;;5115916;28;20312;-71
2022/05/01 02:37:06;;;;;;;28.42;18.92;;;11.60;99.90;;;;;;5116051;28;20206;-71
2022/05/01 02:39:32;;;;;;;23.10;16.75;;;11.70;99.90;;;;;;5115644;28;20252;-71
2022/05/01 02:41:59;;;;;;;32.60;19.33;;;11.60;99.90;;;;;;5116107;28;20308;-71
2022/05/01 02:44:26;;;;;;;29.27;19.00;;;11.70;99.90;;;;;;5115637;28;20228;-70
2022/05/01 02:46:55;;;;;;;28.40;18.48;;;11.60;99.90;;;;;;5116112;28;20201;-70
2022/05/01 02:49:22;;;;;;;28.58;18.05;;;11.60;99.90;;;;;;5115826;27;20205;-71
2022/05/01 02:51:49;;;;;;;30.63;18.50;;;11.60;99.90;;;;;;5115953;28;20202;-70
2022/05/01 02:54:15;;;;;;;30.55;19.45;;;11.40;99.90;;;;;;5115722;28;20228;-71
2022/05/01 02:56:42;;;;;;;28.40;17.83;;;11.50;99.90;;;;;;5116026;28;20201;-71
2022/05/01 02:59:09;;;;;;;28.55;18.30;;;11.30;99.90;;;;;;5115896;28;20292;-71
2022/05/01 03:01:36;;;;;;;27.30;19.33;;;11.20;99.90;;;;;;5115695;28;20221;-71
2022/05/01 03:04:05;;;;;;;25.90;17.58;;;11.20;99.90;;;;;;5115537;28;20227;-71
2022/05/01 03:06:33;;;;;;;29.45;18.05;;;11.20;99.90;;;;;;5115777;28;20239;-71
2022/05/01 03:09:00;;;;;;;28.80;17.70;;;11.20;99.90;;;;;;5115650;28;20201;-71
2022/05/01 03:11:27;;;;;;;26.30;17.83;;;11.00;99.90;;;;;;5115306;28;20194;-70
2022/05/01 03:13:55;;;;;;;26.00;16.15;;;11.10;99.90;;;;;;5115199;28;20197;-71
2022/05/01 03:16:22;;;;;;;32.00;19.55;;;11.10;99.90;;;;;;5115222;28;20746;-71
2022/05/01 03:24:19;;;;;;;31.40;18.55;;;11.20;99.90;;;;;;5115187;28;20237;-71
2022/05/01 03:26:47;;;;;;;31.70;18.42;;;11.20;99.90;;;;;;5115300;28;20231;-71
2022/05/01 03:29:14;;;;;;;33.05;19.13;;;11.10;99.90;;;;;;5115065;28;20213;-71
2022/05/01 03:31:40;;;;;;;28.95;18.73;;;11.10;99.90;;;;;;5115014;28;20198;-71
2022/05/01 03:34:08;;;;;;;30.52;18.92;;;11.10;99.90;;;;;;5114638;28;20297;-71
2022/05/01 03:36:36;;;;;;;33.75;19.58;;;11.10;99.90;;;;;;5115144;28;20292;-71
2022/05/01 03:39:05;;;;;;;27.80;18.80;;;11.00;99.90;;;;;;5115029;27;20225;-71
2022/05/01 03:41:32;;;;;;;29.30;18.35;;;11.00;99.90;;;;;;5114927;28;20236;-71
2022/05/01 03:43:59;;;;;;;34.85;20.67;;;11.00;99.90;;;;;;5114755;28;20206;-70
2022/05/01 03:46:25;;;;;;;31.92;19.90;;;10.90;99.90;;;;;;5114959;28;20212;-71
2022/05/01 03:48:52;;;;;;;34.67;19.20;;;10.80;99.90;;;;;;5114909;27;20545;-71
2022/05/01 03:51:19;;;;;;;27.85;18.75;;;10.80;99.90;;;;;;5114031;28;20198;-71
2022/05/01 03:53:48;;;;;;;28.92;18.42;;;10.90;99.90;;;;;;5114432;28;20205;-71
2022/05/01 03:56:14;;;;;;;31.60;20.30;;;11.00;99.90;;;;;;5114764;28;20255;-71
2022/05/01 03:58:41;;;;;;;29.73;19.65;;;11.10;99.90;;;;;;5114666;28;20208;-70
2022/05/01 04:01:08;;;;;;;37.10;22.02;;;11.00;99.90;;;;;;5114555;27;20310;-71
2022/05/01 04:03:35;;;;;;;30.38;18.77;;;10.90;99.90;;;;;;5114305;28;20208;-70
2022/05/01 04:06:02;;;;;;;29.67;18.83;;;11.00;99.90;;;;;;5114614;28;20253;-71
2022/05/01 04:08:29;;;;;;;26.98;17.90;;;11.00;99.90;;;;;;5114452;28;20241;-71
2022/05/01 04:10:57;;;;;;;32.58;18.80;;;11.00;99.90;;;;;;5114522;28;20282;-71
2022/05/01 04:13:24;;;;;;;30.55;19.52;;;11.00;99.90;;;;;;5114209;28;20293;-71
2022/05/01 04:15:51;;;;;;;28.25;18.80;;;11.10;99.90;;;;;;5114411;27;20236;-71
2022/05/01 04:18:17;;;;;;;27.63;18.00;;;11.00;99.90;;;;;;5114368;28;20302;-71
2022/05/01 04:20:45;;;;;;;28.17;18.38;;;11.00;99.90;;;;;;5114194;28;20231;-71
2022/05/01 04:23:12;;;;;;;25.77;17.13;;;11.00;99.90;;;;;;5114124;28;20295;-71
2022/05/01 04:25:39;;;;;;;28.70;18.85;;;11.00;99.90;;;;;;5113984;28;20227;-70
2022/05/01 04:28:11;;;;;;;30.50;20.30;;;10.90;99.90;;;;;;5114631;28;20197;-71
2022/05/01 04:30:39;;;;;;;28.77;19.30;;;10.70;99.90;;;;;;5114227;28;20201;-71
2022/05/01 04:33:08;;;;;;;26.73;17.45;;;10.60;99.90;;;;;;5114027;28;20233;-71
2022/05/01 04:35:38;;;;;;;32.33;18.67;;;10.50;99.90;;;;;;5114101;28;20308;-71
2022/05/01 04:38:07;;;;;;;30.05;19.15;;;10.50;99.90;;;;;;5114154;28;20208;-70
2022/05/01 04:40:35;;;;;;;25.25;17.25;;;10.50;99.90;;;;;;5113855;28;20201;-70
2022/05/01 04:43:04;;;;;;;29.50;18.00;;;10.50;99.90;;;;;;5113951;28;20541;-70
2022/05/01 04:45:33;;;;;;;28.90;18.08;;;10.50;99.90;;;;;;5113859;28;20253;-70
2022/05/01 04:48:01;;;;;;;30.92;19.33;;;10.60;99.90;;;;;;5113761;28;20212;-70
2022/05/01 04:50:28;;;;;;;28.55;18.55;;;10.50;99.90;;;;;;5114013;28;20665;-71
2022/05/01 04:52:56;;;;;;;29.35;18.95;;;10.40;99.90;;;;;;5113867;28;20211;-70
2022/05/01 04:55:23;;;;;;;29.67;18.70;;;10.50;99.90;;;;;;5113960;28;20224;-70
2022/05/01 04:57:50;;;;;;;30.40;19.38;;;10.60;99.90;;;;;;5113912;28;20651;-71
2022/05/01 05:00:18;;;;;;;24.92;18.40;;;10.60;99.90;;;;;;5113814;28;20742;-71
2022/05/01 05:02:49;;;;;;;32.13;19.98;;;10.70;99.90;;;;;;5114942;28;20266;-71
2022/05/01 05:05:16;;;;;;;29.80;18.98;;;10.80;99.90;;;;;;5117595;28;20775;-70
2022/05/01 05:07:47;;;;;;;29.33;20.23;;;10.80;99.90;;;;;;5117933;28;20208;-70
2022/05/01 05:10:14;;;;;;;30.17;18.85;;;10.70;99.90;;;;;;5117989;28;20213;-70
2022/05/01 05:12:42;;;;;;;32.65;20.73;;;10.70;99.90;;;;;;5117953;27;20624;-70
2022/05/01 05:15:10;;;;;;;35.10;20.70;;;10.60;99.90;;;;;;5117438;28;20591;-70
2022/05/01 05:17:38;;;;;;;28.80;19.13;;;10.50;99.90;;;;;;5117738;28;20201;-70
2022/05/01 05:20:09;;;;;;;30.02;19.17;;;10.50;99.90;;;;;;5117758;28;20201;-71
2022/05/01 05:22:36;;;;;;;27.15;18.08;;;10.70;99.90;;;;;;5117540;28;20746;-71
2022/05/01 05:25:04;;;;;;;29.23;18.48;;;10.80;99.90;;;;;;5117252;27;20221;-70
2022/05/01 05:27:31;;;;;;;27.10;17.88;;;10.90;99.90;;;;;;5117358;28;20656;-70
2022/05/01 05:29:58;;;;;;;27.77;17.50;;;11.00;99.90;;;;;;5117354;28;20300;-70
2022/05/01 05:32:26;;;;;;;26.25;18.35;;;11.00;99.90;;;;;;5117558;28;20573;-70
2022/05/01 05:34:53;;;;;;;29.10;18.55;;;11.00;99.90;;;;;;5117180;28;20590;-71
2022/05/01 05:37:21;;;;;;;29.15;19.40;;;11.00;99.90;;;;;;5117528;28;20223;-70
2022/05/01 05:39:49;;;;;;;29.40;18.40;;;10.90;99.90;;;;;;5117326;28;20670;-70
2022/05/01 05:42:17;;;;;;;27.95;19.35;;;10.90;99.90;;;;;;5117263;28;20266;-70
2022/05/01 05:44:44;;;;;;;28.65;19.40;;;11.00;99.90;;;;;;5117158;28;20229;-70
2022/05/01 05:47:11;;;;;;;31.40;20.08;;;11.10;99.90;;;;;;5117203;28;20207;-70
2022/05/01 05:49:38;;;;;;;26.40;17.60;;;11.10;99.90;;;;;;5117037;28;20205;-70
2022/05/01 05:52:05;;;;;;;27.05;18.67;;;11.10;99.90;;;;;;5117153;28;20304;-70
2022/05/01 05:54:33;;;;;;;26.35;17.80;;;11.20;99.90;;;;;;5116954;28;20222;-70
2022/05/01 05:57:00;;;;;;;28.08;18.10;;;11.00;99.90;;;;;;5117479;28;20295;-70
2022/05/01 05:59:27;;;;;;;30.88;18.52;;;11.20;99.90;;;;;;5116846;28;20674;-70
2022/05/01 06:01:54;;;;;;;28.38;17.95;;;11.10;99.90;;;;;;5116883;28;20278;-70
2022/05/01 06:04:21;;;;;;;27.42;17.92;;;11.10;99.90;;;;;;5116402;28;20313;-71
2022/05/01 06:06:48;;;;;;;28.73;18.95;;;11.10;99.90;;;;;;5116945;28;20198;-71
2022/05/01 06:09:14;;;;;;;27.35;18.20;;;11.20;99.90;;;;;;5116806;28;20292;-70
2022/05/01 06:11:43;;;;;;;28.70;18.58;;;11.30;99.90;;;;;;5116581;28;20207;-70
2022/05/01 06:14:09;;;;;;;29.00;19.50;;;11.20;99.90;;;;;;5115662;28;20212;-70
2022/05/01 06:16:37;;;;;;;29.67;18.73;;;11.30;99.90;;;;;;5116444;28;20292;-70
2022/05/01 06:19:04;;;;;;;26.90;17.13;;;11.40;99.90;;;;;;5116658;28;20217;-70
2022/05/01 06:21:32;;;;;;;24.92;17.20;;;11.50;99.90;;;;;;5116473;28;20224;-70
2022/05/01 06:23:59;;;;;;;26.25;18.13;;;11.60;99.90;;;;;;5116062;28;20201;-70
2022/05/01 06:26:26;;;;;;;26.27;16.55;;;11.50;99.90;;;;;;5116560;28;20198;-71
2022/05/01 06:28:54;;;;;;;23.48;16.65;;;11.60;99.90;;;;;;5116281;28;20581;-71
2022/05/01 06:31:21;;;;;;;23.60;15.98;;;11.70;99.90;;;;;;5116385;28;20225;-70
2022/05/01 06:33:48;;;;;;;26.67;17.80;;;11.70;99.90;;;;;;5116074;28;20205;-70
2022/05/01 06:36:16;;;;;;;26.52;17.15;;;11.70;99.90;;;;;;5116503;28;20236;-71
2022/05/01 06:38:44;;;;;;;29.70;18.17;;;11.70;99.90;;;;;;5116301;28;20636;-71
2022/05/01 06:41:11;;;;;;;27.73;17.60;;;11.70;99.90;;;;;;5115990;28;20722;-71
2022/05/01 06:43:38;;;;;;;26.20;17.90;;;11.50;99.90;;;;;;5115824;28;20659;-71
2022/05/01 06:46:06;;;;;;;23.20;15.45;;;11.50;99.90;;;;;;5116094;28;20221;-70
2022/05/01 06:48:33;;;;;;;25.38;17.25;;;11.60;99.90;;;;;;5116618;28;20297;-71
2022/05/01 06:51:01;;;;;;;24.85;16.25;;;11.70;99.90;;;;;;5116052;28;20299;-71
2022/05/01 06:53:27;;;;;;;25.02;16.67;;;11.70;99.90;;;;;;5115869;28;20198;-71
2022/05/01 06:55:56;;;;;;;23.00;16.33;;;11.90;99.90;;;;;;5115937;28;20308;-71
2022/05/01 06:58:23;;;;;;;24.17;16.65;;;11.90;99.90;;;;;;5115886;28;20205;-70
2022/05/01 07:00:52;;;;;;;26.27;16.48;;;12.00;99.90;;;;;;5115849;28;20201;-70
2022/05/01 07:03:20;;;;;;;25.70;17.02;;;12.00;99.90;;;;;;5115399;28;20320;-71
2022/05/01 07:05:47;;;;;;;24.45;17.33;;;12.10;99.90;;;;;;5115717;28;20248;-71
2022/05/01 07:08:13;;;;;;;36.58;23.17;;;12.20;99.90;;;;;;5115517;28;20212;-71
2022/05/01 07:10:40;;;;;;;26.40;17.73;;;12.30;99.90;;;;;;5115538;28;20585;-71
2022/05/01 07:13:09;;;;;;;24.65;17.10;;;12.30;99.90;;;;;;5115411;28;20204;-71
2022/05/01 07:15:36;;;;;;;24.20;17.70;;;12.20;99.90;;;;;;5115271;28;20313;-70
2022/05/01 07:18:03;;;;;;;23.75;16.95;;;12.20;99.90;;;;;;5115229;27;20201;-71
2022/05/01 07:20:34;;;;;;;24.80;16.38;;;12.20;99.90;;;;;;5115410;28;20287;-70
2022/05/01 07:23:01;;;;;;;24.73;17.20;;;12.40;99.90;;;;;;5114981;28;20228;-70
2022/05/01 07:25:28;;;;;;;24.48;17.17;;;12.40;99.90;;;;;;5115395;28;20583;-71
2022/05/01 07:27:54;;;;;;;24.27;17.00;;;12.50;99.90;;;;;;5115081;28;20208;-71
2022/05/01 07:30:21;;;;;;;21.92;15.68;;;12.60;99.90;;;;;;5114879;28;20209;-71
2022/05/01 07:32:48;;;;;;;22.58;16.17;;;12.70;99.90;;;;;;5115240;27;20193;-70
2022/05/01 07:35:15;;;;;;;20.38;15.07;;;12.60;99.90;;;;;;5114698;28;20292;-70
2022/05/01 07:37:43;;;;;;;21.98;16.40;;;12.40;99.90;;;;;;5115125;28;20207;-71
2022/05/01 07:40:11;;;;;;;24.08;16.52;;;12.40;99.90;;;;;;5115106;28;20288;-71
2022/05/01 07:42:38;;;;;;;26.48;16.45;;;12.40;99.90;;;;;;5114927;28;20647;-71
2022/05/01 07:45:05;;;;;;;21.50;16.50;;;12.50;99.90;;;;;;5114514;28;20217;-71
2022/05/01 07:47:32;;;;;;;23.83;16.20;;;12.60;99.90;;;;;;5114934;28;20208;-71
2022/05/01 07:49:59;;;;;;;22.80;15.45;;;12.50;99.90;;;;;;5114729;28;20663;-71
2022/05/01 07:52:26;;;;;;;21.65;16.05;;;12.30;99.90;;;;;;5114567;28;20681;-71
2022/05/01 07:54:54;;;;;;;20.80;16.00;;;12.40;99.90;;;;;;5114460;28;20702;-71
2022/05/01 07:57:26;;;;;;;21.42;15.77;;;12.50;99.90;;;;;;5114768;28;20197;-71
2022/05/01 07:59:53;;;;;;;24.75;16.08;;;12.70;99.90;;;;;;5114785;28;20290;-70
2022/05/01 08:02:20;;;;;;;23.15;16.58;;;12.80;99.90;;;;;;5114456;28;20224;-70
2022/05/01 08:04:47;;;;;;;24.52;17.15;;;12.90;99.90;;;;;;5114578;28;20614;-70
2022/05/01 08:07:14;;;;;;;18.67;14.40;;;13.00;99.90;;;;;;5114696;28;20201;-71
2022/05/01 08:09:41;;;;;;;22.23;15.25;;;13.00;99.90;;;;;;5114548;27;20208;-71
2022/05/01 08:12:10;;;;;;;22.15;15.27;;;13.20;99.90;;;;;;5114443;28;20208;-71
2022/05/01 08:14:38;;;;;;;20.00;14.80;;;13.30;99.90;;;;;;5114025;28;20754;-70
2022/05/01 08:17:05;;;;;;;20.83;15.40;;;13.30;99.90;;;;;;5114264;28;20678;-70
2022/05/01 08:22:16;;;;;;;16.95;13.73;;;13.20;99.90;;;;;;5114147;28;20224;-71
2022/05/01 08:24:43;;;;;;;21.42;15.45;;;13.30;99.90;;;;;;5113881;28;20218;-71
2022/05/01 08:27:11;;;;;;;21.92;15.25;;;13.40;99.90;;;;;;5114313;28;20201;-71
2022/05/01 08:29:38;;;;;;;22.83;15.98;;;13.50;99.90;;;;;;5114103;28;20304;-71
2022/05/01 08:32:07;;;;;;;20.13;14.70;;;13.40;99.90;;;;;;5114187;28;20216;-71
2022/05/01 08:34:33;;;;;;;21.58;15.68;;;13.40;99.90;;;;;;5113771;28;20584;-71
2022/05/01 08:37:00;;;;;;;21.40;15.48;;;13.50;99.90;;;;;;5113508;28;20686;-71
2022/05/01 08:39:30;;;;;;;20.70;15.32;;;13.60;99.90;;;;;;5114106;28;20297;-71
2022/05/01 08:41:57;;;;;;;22.15;16.33;;;13.70;99.90;;;;;;5114049;28;20210;-71
2022/05/01 08:44:32;;;;;;;22.08;16.08;;;13.80;99.90;;;;;;5113831;28;20226;-71
2022/05/01 08:47:21;;;;;;;20.38;16.05;;;13.90;99.90;;;;;;5113844;28;20190;-71
2022/05/01 08:49:54;;;;;;;19.25;13.95;;;13.90;99.90;;;;;;5113765;28;20659;-71
2022/05/01 08:52:23;;;;;;;19.92;15.07;;;14.00;99.90;;;;;;5114120;28;20214;-71
2022/05/01 08:54:51;;;;;;;17.58;14.30;;;14.20;99.90;;;;;;5113750;28;20222;-71
2022/05/01 08:57:21;;;;;;;19.65;14.38;;;14.20;99.90;;;;;;5113975;28;20199;-71
2022/05/01 08:59:53;;;;;;;19.77;14.40;;;14.20;99.90;;;;;;5113919;28;20218;-71
2022/05/01 09:02:20;;;;;;;19.70;14.32;;;14.10;99.90;;;;;;5113997;28;20209;-71
2022/05/01 09:04:47;;;;;;;21.27;14.95;;;14.10;99.90;;;;;;5113486;28;20219;-71
2022/05/01 09:07:15;;;;;;;19.80;15.02;;;14.10;99.90;;;;;;5113978;28;20201;-71
2022/05/01 09:09:42;;;;;;;18.27;14.38;;;14.20;99.90;;;;;;5114154;28;20301;-71
2022/05/01 09:15:00;;;;;;;20.20;14.60;;;14.20;99.90;;;;;;5102727;28;20205;-71
2022/05/01 09:17:27;;;;;;;18.58;14.75;;;14.10;99.90;;;;;;5114154;28;20227;-71
2022/05/01 09:20:05;;;;;;;20.35;15.05;;;14.10;99.90;;;;;;5113789;28;20207;-71
2022/05/01 09:22:48;;;;;;;17.70;13.90;;;14.20;99.90;;;;;;5113398;28;20217;-71
2022/05/01 09:25:19;;;;;;;17.88;13.50;;;14.30;99.90;;;;;;5113739;28;20225;-71
2022/05/01 09:27:46;;;;;;;18.23;12.93;;;14.30;99.90;;;;;;5113425;28;20245;-71
2022/05/01 09:30:18;;;;;;;15.70;11.95;;;14.40;99.90;;;;;;5113455;28;20246;-71
2022/05/01 09:32:45;;;;;;;14.23;11.50;;;14.50;99.90;;;;;;5113566;28;20260;-71
2022/05/01 09:35:17;;;;;;;14.63;11.20;;;14.40;99.90;;;;;;5112917;28;20221;-71
2022/05/01 09:37:44;;;;;;;13.90;9.88;;;14.50;99.90;;;;;;5113615;28;20200;-71
2022/05/01 09:40:13;;;;;;;14.77;11.82;;;14.80;99.90;;;;;;5113597;28;20296;-71
2022/05/01 09:42:40;;;;;;;17.13;12.95;;;15.20;99.90;;;;;;5113476;28;20227;-71
2022/05/01 09:45:11;;;;;;;14.50;11.60;;;15.60;99.90;;;;;;5113137;28;20721;-71
2022/05/01 09:47:41;;;;;;;12.65;10.23;;;16.20;99.90;;;;;;5113331;28;20196;-71
2022/05/01 09:50:10;;;;;;;13.95;11.30;;;16.60;98.90;;;;;;5115197;28;20196;-71
2022/05/01 09:52:56;;;;;;;15.15;11.77;;;16.90;98.80;;;;;;5117205;28;20206;-71
2022/05/01 09:55:23;;;;;;;13.40;10.35;;;16.60;97.90;;;;;;5117134;28;20225;-71
2022/05/01 09:57:51;;;;;;;15.52;12.07;;;17.10;98.00;;;;;;5117105;28;20201;-71
2022/05/01 10:00:36;;;;;;;15.27;11.40;;;17.60;96.80;;;;;;5117029;28;20204;-71
2022/05/01 10:03:23;;;;;;;15.25;11.93;;;17.90;95.40;;;;;;5116577;28;20221;-71
2022/05/01 10:05:51;;;;;;;15.85;11.50;;;18.30;94.50;;;;;;5117010;28;20315;-71
2022/05/01 10:08:18;;;;;;;14.00;11.05;;;18.30;94.10;;;;;;5116869;28;20203;-71
2022/05/01 10:10:46;;;;;;;13.98;11.13;;;18.20;92.50;;;;;;5116720;28;20669;-71
2022/05/01 10:13:14;;;;;;;13.50;11.68;;;18.30;93.40;;;;;;5116667;28;20194;-71
2022/05/01 10:15:41;;;;;;;15.05;11.85;;;18.50;92.50;;;;;;5116746;28;20251;-71
2022/05/01 10:18:09;;;;;;;12.63;11.25;;;18.60;92.10;;;;;;5116569;28;20288;-71
2022/05/01 10:20:38;;;;;;;15.77;11.73;;;18.50;91.50;;;;;;5116628;28;20202;-71
2022/05/01 10:23:05;;;;;;;13.48;10.98;;;18.00;92.00;;;;;;5116394;28;20221;-71
2022/05/01 10:25:37;;;;;;;12.93;11.55;;;17.70;92.80;;;;;;5116232;28;20217;-71
2022/05/01 10:28:13;;;;;;;12.77;11.30;;;17.50;92.50;;;;;;5116527;28;20201;-71
2022/05/01 10:33:50;;;;;;;14.13;11.27;;;16.90;91.90;;;;;;5116248;28;20192;-71
2022/05/01 10:36:45;;;;;;;13.10;10.20;;;16.90;93.40;;;;;;5116391;28;20221;-71
2022/05/01 10:39:14;;;;;;;11.77;9.57;;;17.90;92.40;;;;;;5116180;28;20687;-71
2022/05/01 10:41:43;;;;;;;12.07;9.67;;;18.70;90.50;;;;;;5116283;28;20613;-71
2022/05/01 10:44:28;;;;;;;13.77;10.83;;;19.00;89.00;;;;;;5115756;28;20484;-71
2022/05/01 10:46:55;;;;;;;11.90;10.60;;;20.00;84.00;;;;;;5116216;28;20442;-71
2022/05/01 10:49:36;;;;;;;12.30;10.53;;;21.10;83.00;;;;;;5115940;28;20443;-69
2022/05/01 10:52:19;;;;;;;11.60;10.37;;;21.40;76.80;;;;;;5116017;28;20455;-71
2022/05/01 10:54:54;;;;;;;10.67;9.60;;;20.80;77.00;;;;;;5115622;28;20825;-71
2022/05/01 10:57:23;;;;;;;11.50;10.27;;;20.70;76.00;;;;;;5116103;28;20526;-71
2022/05/01 11:00:05;;;;;;;12.93;10.77;;;20.30;79.60;;;;;;5115879;28;20949;-71
2022/05/01 11:02:36;;;;;;;12.03;10.17;;;19.60;80.30;;;;;;5115714;28;20442;-71
2022/05/01 11:05:04;;;;;;;11.37;10.17;;;20.20;81.80;;;;;;5115310;28;20470;-71
2022/05/01 11:07:34;;;;;;;11.00;9.83;;;21.10;79.20;;;;;;5115512;28;20447;-71
2022/05/01 11:10:02;;;;;;;11.63;10.30;;;21.40;75.40;;;;;;5115566;28;20439;-71
2022/05/01 11:12:32;;;;;;;11.07;9.93;;;21.20;74.10;;;;;;5115639;28;20445;-71
2022/05/01 11:15:00;;;;;;;10.70;9.60;;;20.50;75.50;;;;;;5115138;27;20967;-71
2022/05/01 11:17:55;;;;;;;9.80;8.80;;;19.80;77.60;;;;;;5115480;28;20471;-71
2022/05/01 11:20:34;;;;;;;12.77;11.05;;;19.40;78.30;;;;;;5115519;28;20440;-71
2022/05/01 11:23:43;;;;;;;11.93;10.20;;;18.90;79.10;;;;;;5115226;28;20316;-71
2022/05/01 11:26:16;;;;;;;11.48;9.73;;;18.50;81.20;;;;;;5115400;28;20582;-70
2022/05/01 11:28:54;;;;;;;11.85;10.55;;;18.20;81.90;;;;;;5115189;28;20266;-71
2022/05/01 11:31:57;;;;;;;11.80;10.15;;;18.10;82.60;;;;;;5115265;28;20198;-70
2022/05/01 11:34:34;;;;;;;13.45;10.40;;;17.90;83.40;;;;;;5114889;28;20221;-71
2022/05/01 11:37:02;;;;;;;12.88;10.50;;;17.80;83.50;;;;;;5115168;28;20197;-71
2022/05/01 11:40:02;;;;;;;12.73;10.73;;;17.60;86.20;;;;;;5115128;28;20206;-70
2022/05/01 11:42:36;;;;;;;13.52;11.40;;;17.20;83.80;;;;;;5115041;28;20197;-70
2022/05/01 11:45:05;;;;;;;15.00;10.82;;;16.90;86.50;;;;;;5114899;27;20213;-70
2022/05/01 11:47:33;;;;;;;21.33;15.90;;;16.80;88.70;;;;;;5114972;27;20205;-71
2022/05/01 11:50:00;;;;;;;13.43;10.80;;;16.90;87.70;;;;;;5115114;28;20208;-70
2022/05/01 11:52:27;;;;;;;13.35;11.13;;;16.80;89.60;;;;;;5114880;28;20209;-70
2022/05/01 11:54:56;;;;;;;12.27;10.60;;;16.60;90.80;;;;;;5114348;28;20251;-70
2022/05/01 12:02:58;;;;;;;19.75;11.70;;;16.40;92.90;;;;;;5114492;28;20207;-70
2022/05/01 12:05:26;;;;;;;14.73;11.45;;;16.50;92.50;;;;;;5114430;28;20270;-70
2022/05/01 12:07:57;;;;;;;14.93;11.80;;;16.30;92.20;;;;;;5114387;28;20212;-70
2022/05/01 12:10:24;;;;;;;13.60;11.15;;;16.30;92.60;;;;;;5114609;28;20201;-70
2022/05/01 12:12:51;;;;;;;13.85;10.98;;;16.10;92.90;;;;;;5113842;28;20201;-70
2022/05/01 12:15:19;;;;;;;13.10;11.05;;;16.20;92.60;;;;;;5114157;28;20311;-70
2022/05/01 12:17:46;;;;;;;15.43;11.85;;;16.40;91.60;;;;;;5114451;28;20203;-70
2022/05/01 12:20:13;;;;;;;13.68;11.10;;;16.50;92.70;;;;;;5114453;28;20603;-70
2022/05/01 12:22:40;;;;;;;14.15;11.07;;;16.60;92.40;;;;;;5114411;28;20567;-70
2022/05/01 12:25:10;;;;;;;11.80;10.10;;;16.80;92.60;;;;;;5114060;28;20235;-71
2022/05/01 12:27:40;;;;;;;14.20;11.05;;;16.90;92.10;;;;;;5114266;28;20205;-71
2022/05/01 12:30:08;;;;;;;11.70;10.07;;;17.10;90.80;;;;;;5113977;28;20460;-70
2022/05/01 12:32:37;;;;;;;14.43;10.85;;;17.30;91.20;;;;;;5114166;28;20247;-70
2022/05/01 12:35:06;;;;;;;12.63;10.88;;;17.30;90.90;;;;;;5114078;28;20213;-71
2022/05/01 12:37:35;;;;;;;12.52;10.55;;;17.30;90.70;;;;;;5114182;28;20251;-71
2022/05/01 12:40:05;;;;;;;12.52;11.23;;;17.30;90.60;;;;;;5114157;28;20552;-71
2022/05/01 12:45:35;;;;;;;13.80;10.55;;;17.30;90.20;;;;;;5114059;28;20274;-70
2022/05/01 12:48:05;;;;;;;12.77;10.98;;;17.20;90.20;;;;;;5114147;28;20197;-71
2022/05/01 12:50:37;;;;;;;12.10;10.00;;;17.40;89.80;;;;;;5113932;28;20201;-71
2022/05/01 12:53:22;;;;;;;13.38;11.25;;;17.60;89.90;;;;;;5113804;28;20296;-70
2022/05/01 12:55:49;;;;;;;13.27;10.20;;;17.90;88.40;;;;;;5114016;28;20221;-71
2022/05/01 12:58:27;;;;;;;11.20;10.05;;;18.00;90.00;;;;;;5113964;28;20292;-71
2022/05/01 13:00:54;;;;;;;10.98;9.88;;;18.20;88.00;;;;;;5114007;28;20213;-70
2022/05/01 13:03:24;;;;;;;12.00;10.57;;;18.30;87.10;;;;;;5113600;28;20222;-71
2022/05/01 13:06:10;;;;;;;12.90;10.32;;;18.30;84.60;;;;;;5113570;28;20316;-71